Time;durP1;ratioP1;P1;durP2;ratioP2;P2;SDS_P1;SDS_P2;PMS_P1;PMS_P2;Temp;Humidity;BMP_temperature;BMP_pressure;BME280_temperature;BME280_humidity;BME280_pressure;Samples;Min_cycle;Max_cycle;Signal;HPM_P1;HPM_P2
2021/09/12 00:01:47;;;;;;;126.72;20.82;;;;;;;11.61;100.00;100705.42;1749799;82;20944;-52
2021/09/12 00:04:14;;;;;;;122.22;20.80;;;;;;;11.59;100.00;100698.58;1750028;82;20924;-53
2021/09/12 00:06:42;;;;;;;92.82;19.23;;;;;;;11.57;100.00;100706.83;1749759;81;21514;-52
2021/09/12 00:09:09;;;;;;;95.80;21.70;;;;;;;11.54;100.00;100704.30;1749786;81;21445;-52
2021/09/12 00:11:35;;;;;;;72.03;19.35;;;;;;;11.52;100.00;100706.06;1750098;82;21111;-52
2021/09/12 00:14:03;;;;;;;92.45;17.75;;;;;;;11.48;100.00;100703.50;1749750;81;20928;-53
2021/09/12 00:16:30;;;;;;;77.03;17.65;;;;;;;11.45;100.00;100702.72;1750153;82;20896;-53
2021/09/12 00:18:58;;;;;;;57.93;17.90;;;;;;;11.41;100.00;100708.39;1749776;82;21055;-53
2021/09/12 00:21:25;;;;;;;67.92;21.23;;;;;;;11.37;100.00;100710.63;1750053;82;20897;-53
2021/09/12 00:23:52;;;;;;;43.68;17.75;;;;;;;11.33;100.00;100709.81;1749703;82;21017;-53
2021/09/12 00:26:19;;;;;;;44.33;15.58;;;;;;;11.31;100.00;100714.63;1750125;82;21136;-53
2021/09/12 00:28:45;;;;;;;29.60;13.30;;;;;;;11.27;100.00;100707.33;1749987;82;20948;-52
2021/09/12 00:31:12;;;;;;;33.73;14.23;;;;;;;11.25;100.00;100712.15;1749766;82;20869;-53
2021/09/12 00:33:38;;;;;;;33.58;13.78;;;;;;;11.19;100.00;100713.94;1749961;82;21007;-53
2021/09/12 00:36:05;;;;;;;27.30;13.62;;;;;;;11.17;100.00;100718.75;1749822;81;21248;-53
2021/09/12 00:38:32;;;;;;;38.25;13.55;;;;;;;11.13;100.00;100716.64;1749792;82;20869;-53
2021/09/12 00:41:00;;;;;;;42.05;14.98;;;;;;;11.11;100.00;100714.52;1749800;82;21485;-52
2021/09/12 00:43:27;;;;;;;33.10;13.83;;;;;;;11.07;100.00;100716.30;1750133;82;21008;-53
2021/09/12 00:45:54;;;;;;;28.98;12.88;;;;;;;11.01;100.00;100709.08;1749968;82;21003;-53
2021/09/12 00:48:21;;;;;;;34.53;13.85;;;;;;;10.98;100.00;100716.88;1749983;82;21749;-53
2021/09/12 00:50:49;;;;;;;24.72;12.75;;;;;;;10.95;100.00;100714.34;1749711;82;20932;-52
2021/09/12 00:53:17;;;;;;;27.58;12.93;;;;;;;10.89;100.00;100716.61;1749612;80;20940;-52
2021/09/12 00:55:45;;;;;;;26.55;13.65;;;;;;;10.84;100.00;100712.78;1749730;82;20992;-52
2021/09/12 00:58:15;;;;;;;24.02;12.18;;;;;;;10.78;100.00;100711.59;1749786;82;20889;-52
2021/09/12 01:00:45;;;;;;;24.57;12.60;;;;;;;10.73;100.00;100714.66;1749720;81;21050;-53
2021/09/12 01:03:11;;;;;;;22.10;11.85;;;;;;;10.69;100.00;100713.00;1749515;82;21390;-52
2021/09/12 01:05:38;;;;;;;24.52;11.90;;;;;;;10.64;100.00;100720.41;1749714;81;20975;-52
2021/09/12 01:08:06;;;;;;;29.72;13.48;;;;;;;10.61;100.00;100720.45;1749779;82;21072;-52
2021/09/12 01:10:34;;;;;;;19.05;11.68;;;;;;;10.58;100.00;100712.73;1722681;82;21588;-52
2021/09/12 01:13:05;;;;;;;32.15;11.75;;;;;;;10.58;100.00;100712.73;1749619;82;20937;-52
2021/09/12 01:15:33;;;;;;;27.20;13.13;;;;;;;10.57;100.00;100702.39;1749552;82;21403;-52
2021/09/12 01:18:00;;;;;;;33.28;13.45;;;;;;;10.54;100.00;100707.19;1749698;82;20951;-52
2021/09/12 01:20:28;;;;;;;36.28;13.40;;;;;;;10.50;100.00;100705.53;1698197;82;21011;-52
2021/09/12 01:22:56;;;;;;;38.67;12.40;;;;;;;10.48;100.00;100707.25;1749708;82;21518;-53
2021/09/12 01:25:22;;;;;;;38.92;11.68;;;;;;;10.45;100.00;100706.88;1722914;82;21447;-53
2021/09/12 01:27:49;;;;;;;29.07;12.40;;;;;;;10.44;100.00;100701.70;1749674;81;20972;-52
2021/09/12 01:30:17;;;;;;;40.25;13.32;;;;;;;10.42;100.00;100707.34;1749635;82;20897;-52
2021/09/12 01:32:43;;;;;;;56.20;13.85;;;;;;;10.39;100.00;100703.48;1749675;82;21486;-52
2021/09/12 01:35:10;;;;;;;58.95;13.80;;;;;;;10.36;100.00;100703.10;1749782;82;21078;-52
2021/09/12 01:37:37;;;;;;;54.40;13.60;;;;;;;10.33;100.00;100700.10;1749757;82;21114;-52
2021/09/12 01:40:06;;;;;;;49.18;13.58;;;;;;;10.29;100.00;100697.56;1749628;82;20939;-52
2021/09/12 01:42:32;;;;;;;46.88;14.85;;;;;;;10.25;100.00;100703.66;1749924;82;20972;-52
2021/09/12 01:44:59;;;;;;;42.38;13.95;;;;;;;10.22;100.00;100708.42;1749725;82;20972;-52
2021/09/12 01:47:25;;;;;;;47.25;13.45;;;;;;;10.17;100.00;100699.88;1750219;80;21006;-52
2021/09/12 01:49:52;;;;;;;39.85;13.70;;;;;;;10.14;100.00;100700.79;1722048;82;21138;-52
2021/09/12 01:52:18;;;;;;;36.30;13.30;;;;;;;10.11;100.00;100696.95;1749764;80;20932;-52
2021/09/12 01:54:46;;;;;;;19.25;12.03;;;;;;;10.10;100.00;100696.95;1749728;82;21007;-55
2021/09/12 01:57:12;;;;;;;23.95;12.00;;;;;;;10.09;100.00;100696.54;1749883;82;20861;-52
2021/09/12 01:59:39;;;;;;;24.32;11.68;;;;;;;10.06;100.00;100691.83;1749631;82;21011;-52
2021/09/12 02:02:06;;;;;;;21.48;11.70;;;;;;;10.07;100.00;100691.37;1729179;81;21062;-52
2021/09/12 02:04:32;;;;;;;16.77;11.78;;;;;;;10.08;100.00;100690.95;1689480;84;21154;-53
2021/09/12 02:06:58;;;;;;;20.77;12.35;;;;;;;10.05;100.00;100692.70;1721322;82;20951;-52
2021/09/12 02:09:27;;;;;;;18.75;11.78;;;;;;;10.04;100.00;100691.41;1686959;83;20959;-53
2021/09/12 02:11:54;;;;;;;24.25;11.83;;;;;;;10.00;100.00;100687.16;1686977;85;21140;-53
2021/09/12 02:14:20;;;;;;;19.27;11.70;;;;;;;10.00;100.00;100692.33;1687232;85;21784;-52
2021/09/12 02:16:49;;;;;;;27.67;12.65;;;;;;;9.97;100.00;100687.20;1703064;84;21510;-52
2021/09/12 02:19:15;;;;;;;19.87;11.75;;;;;;;9.95;100.00;100691.09;1703318;84;21066;-52
2021/09/12 02:21:41;;;;;;;18.15;11.85;;;;;;;9.92;100.00;100702.77;1702948;82;20901;-52
2021/09/12 02:24:08;;;;;;;22.95;12.55;;;;;;;9.89;100.00;100699.80;1703259;84;21418;-52
2021/09/12 02:26:35;;;;;;;17.55;12.00;;;;;;;9.91;100.00;100702.34;1703117;84;21861;-52
2021/09/12 02:29:02;;;;;;;25.35;11.85;;;;;;;9.91;100.00;100698.47;1702726;84;21036;-53
2021/09/12 02:31:29;;;;;;;21.05;12.70;;;;;;;9.89;100.00;100700.22;1721394;82;20990;-52
2021/09/12 02:33:55;;;;;;;17.75;12.40;;;;;;;9.85;100.00;100698.55;1721643;82;20915;-52
2021/09/12 02:36:22;;;;;;;22.07;13.85;;;;;;;9.84;100.00;100701.55;1687095;83;21587;-52
2021/09/12 02:38:49;;;;;;;21.10;12.70;;;;;;;9.85;100.00;100711.05;1702939;84;21126;-52
2021/09/12 02:41:16;;;;;;;20.30;12.35;;;;;;;9.83;100.00;100702.88;1703031;83;20920;-52
2021/09/12 02:43:43;;;;;;;21.68;12.60;;;;;;;9.81;100.00;100700.75;1702815;84;20995;-52
2021/09/12 02:46:09;;;;;;;21.37;11.65;;;;;;;9.79;100.00;100704.63;1721657;82;21469;-52
2021/09/12 02:48:37;;;;;;;18.37;12.05;;;;;;;9.78;100.00;100703.80;1721640;82;21603;-52
2021/09/12 02:51:05;;;;;;;18.80;10.68;;;;;;;9.78;100.00;100708.09;1687059;83;21571;-52
2021/09/12 02:53:33;;;;;;;18.98;11.88;;;;;;;9.77;100.00;100702.08;1686746;85;21033;-52
2021/09/12 02:55:59;;;;;;;19.80;10.60;;;;;;;9.73;100.00;100701.70;1702893;84;20992;-52
2021/09/12 02:58:27;;;;;;;28.15;12.18;;;;;;;9.70;100.00;100706.88;1703001;84;20991;-52
2021/09/12 03:00:55;;;;;;;24.40;12.20;;;;;;;9.68;100.00;100706.04;1700177;83;21051;-52
2021/09/12 03:03:23;;;;;;;19.90;11.35;;;;;;;9.66;100.00;100700.48;1695746;83;21482;-52
2021/09/12 03:05:50;;;;;;;14.38;10.80;;;;;;;9.65;100.00;100705.23;1695699;84;20960;-52
2021/09/12 03:08:18;;;;;;;18.70;11.73;;;;;;;9.63;100.00;100707.83;1695711;83;21008;-52
2021/09/12 03:10:44;;;;;;;25.00;11.50;;;;;;;9.63;100.00;100707.83;1700495;84;21003;-52
2021/09/12 03:13:11;;;;;;;23.47;11.22;;;;;;;9.63;100.00;100708.70;1700542;84;20956;-52
2021/09/12 03:15:39;;;;;;;21.75;10.63;;;;;;;9.63;100.00;100716.45;1695676;84;21055;-52
2021/09/12 03:18:06;;;;;;;18.25;11.50;;;;;;;9.64;100.00;100710.83;1665801;84;20968;-52
2021/09/12 03:20:34;;;;;;;22.07;11.22;;;;;;;9.62;100.00;100712.16;1666284;84;21012;-52
2021/09/12 03:23:01;;;;;;;20.35;11.25;;;;;;;9.62;100.00;100717.74;1695867;83;21020;-52
2021/09/12 03:25:29;;;;;;;16.97;10.90;;;;;;;9.62;100.00;100711.28;1695828;84;21012;-52
2021/09/12 03:27:55;;;;;;;21.25;10.40;;;;;;;9.62;100.00;100710.86;1696362;84;21110;-52
2021/09/12 03:30:21;;;;;;;16.02;11.85;;;;;;;9.62;100.00;100708.70;1695631;83;20912;-52
2021/09/12 03:32:50;;;;;;;23.50;12.28;;;;;;;9.62;100.00;100719.03;1700600;84;20901;-52
2021/09/12 03:35:17;;;;;;;22.20;10.82;;;;;;;9.58;100.00;100716.06;1700775;84;21505;-52
2021/09/12 03:37:45;;;;;;;15.10;11.00;;;;;;;9.57;100.00;100720.82;1657573;85;20975;-52
2021/09/12 03:40:12;;;;;;;18.23;10.80;;;;;;;9.54;100.00;100716.52;1735663;81;21018;-52
2021/09/12 03:42:38;;;;;;;25.02;11.45;;;;;;;9.54;100.00;100719.56;1735790;82;20996;-52
2021/09/12 03:45:06;;;;;;;25.77;12.60;;;;;;;9.52;100.00;100718.72;1735848;82;21019;-52
2021/09/12 03:47:32;;;;;;;15.88;10.08;;;;;;;9.50;100.00;100718.72;1686145;82;20969;-52
2021/09/12 03:49:59;;;;;;;23.52;12.03;;;;;;;9.49;100.00;100716.59;1736067;82;21471;-52
2021/09/12 03:52:27;;;;;;;34.83;13.08;;;;;;;9.49;100.00;100724.34;1735887;82;20972;-52
2021/09/12 03:54:54;;;;;;;22.82;10.88;;;;;;;9.52;100.00;100723.89;1735747;82;21003;-52
2021/09/12 03:57:23;;;;;;;22.20;12.65;;;;;;;9.55;100.00;100715.65;1735768;82;20902;-52
2021/09/12 03:59:51;;;;;;;19.42;10.88;;;;;;;9.59;100.00;100726.83;1735979;82;21471;-52
2021/09/12 04:02:18;;;;;;;24.65;11.28;;;;;;;9.65;100.00;100722.88;1735717;82;20921;-52
2021/09/12 04:04:45;;;;;;;25.00;11.60;;;;;;;9.73;100.00;100730.56;1735804;82;21617;-52
2021/09/12 04:07:13;;;;;;;23.30;11.55;;;;;;;9.83;100.00;100726.98;1735897;82;21538;-52
2021/09/12 04:09:40;;;;;;;25.85;12.37;;;;;;;9.94;100.00;100727.33;1736147;82;20965;-52
2021/09/12 04:12:07;;;;;;;29.42;11.50;;;;;;;10.05;100.00;100726.75;1735879;81;21000;-52
2021/09/12 04:14:33;;;;;;;26.60;10.50;;;;;;;10.20;100.00;100723.11;1715387;82;20980;-52
2021/09/12 04:17:00;;;;;;;16.02;10.53;;;;;;;10.37;100.00;100732.41;1735862;82;21307;-52
2021/09/12 04:19:28;;;;;;;21.73;10.75;;;;;;;10.57;100.00;100729.14;1735780;82;21008;-52
2021/09/12 04:21:54;;;;;;;13.78;10.82;;;;;;;10.77;100.00;100727.55;1735896;82;20929;-52
2021/09/12 04:24:24;;;;;;;17.10;11.18;;;;;;;10.99;100.00;100736.72;1735849;82;20977;-52
2021/09/12 04:26:51;;;;;;;27.40;10.72;;;;;;;11.22;100.00;100732.48;1735970;81;21474;-52
2021/09/12 04:29:18;;;;;;;24.27;10.95;;;;;;;11.48;100.00;100726.83;1735762;82;21123;-52
2021/09/12 04:31:44;;;;;;;17.48;11.05;;;;;;;11.71;100.00;100722.96;1735722;82;20945;-52
2021/09/12 04:34:11;;;;;;;19.87;11.53;;;;;;;11.91;100.00;100725.19;1735893;82;20885;-52
2021/09/12 04:36:39;;;;;;;25.92;10.98;;;;;;;12.12;100.00;100722.22;1735912;82;20933;-52
2021/09/12 04:39:06;;;;;;;24.92;10.93;;;;;;;12.30;100.00;100721.84;1736426;82;20937;-52
2021/09/12 04:41:32;;;;;;;24.18;10.63;;;;;;;12.47;100.00;100718.00;1735715;82;21128;-52
2021/09/12 04:44:01;;;;;;;30.82;10.90;;;;;;;12.59;100.00;100720.34;1735770;82;20956;-53
2021/09/12 04:46:27;;;;;;;14.75;9.85;;;;;;;12.71;100.00;100715.31;1735924;81;20924;-52
2021/09/12 04:48:53;;;;;;;26.23;10.98;;;;;;;12.79;100.00;100713.84;1735766;82;21026;-52
2021/09/12 04:51:23;;;;;;;21.73;9.83;;;;;;;12.87;100.00;100721.00;1735865;81;20988;-52
2021/09/12 04:53:50;;;;;;;19.62;10.45;;;;;;;12.94;100.00;100723.01;1735726;82;21503;-52
2021/09/12 04:56:17;;;;;;;21.20;10.53;;;;;;;13.01;100.00;100718.06;1736133;82;21416;-52
2021/09/12 04:58:45;;;;;;;21.05;10.65;;;;;;;13.06;100.00;100714.06;1735798;81;20948;-52
2021/09/12 05:01:13;;;;;;;17.50;10.58;;;;;;;13.11;100.00;100710.90;1739223;82;21580;-52
2021/09/12 05:03:40;;;;;;;17.02;9.55;;;;;;;13.17;100.00;100712.50;1749829;82;21068;-53
2021/09/12 05:06:07;;;;;;;18.98;9.98;;;;;;;13.21;100.00;100714.96;1749789;80;21120;-52
2021/09/12 05:08:34;;;;;;;20.88;10.53;;;;;;;13.26;99.96;100708.35;1750019;82;21534;-52
2021/09/12 05:11:03;;;;;;;22.32;10.60;;;;;;;13.31;99.44;100711.69;1749926;80;21428;-52
2021/09/12 05:13:31;;;;;;;23.87;10.18;;;;;;;13.36;98.89;100708.97;1749840;82;20932;-53
2021/09/12 05:15:58;;;;;;;28.42;10.50;;;;;;;13.43;98.36;100705.34;1750082;82;20920;-52
2021/09/12 05:18:26;;;;;;;26.75;10.80;;;;;;;13.49;97.77;100699.97;1749907;82;20956;-53
2021/09/12 05:20:52;;;;;;;16.35;11.00;;;;;;;13.53;97.19;100702.05;1750045;82;20873;-53
2021/09/12 05:23:19;;;;;;;17.35;10.60;;;;;;;13.60;96.85;100696.25;1749876;82;21474;-53
2021/09/12 05:25:46;;;;;;;26.33;10.48;;;;;;;13.64;96.40;100695.27;1750134;82;20974;-52
2021/09/12 05:28:15;;;;;;;22.80;10.53;;;;;;;13.71;96.06;100703.76;1749900;82;20981;-52
2021/09/12 05:30:42;;;;;;;18.70;10.25;;;;;;;13.77;95.83;100700.55;1749710;81;21774;-52
2021/09/12 05:33:08;;;;;;;23.02;11.03;;;;;;;13.85;95.51;100700.30;1749742;82;20916;-52
2021/09/12 05:35:36;;;;;;;22.90;10.85;;;;;;;13.93;95.26;100693.16;1749946;82;21542;-52
2021/09/12 05:38:03;;;;;;;22.15;10.80;;;;;;;14.03;95.05;100692.45;1749899;82;20984;-52
2021/09/12 05:40:29;;;;;;;26.48;11.10;;;;;;;14.14;94.86;100695.17;1749804;80;20976;-52
2021/09/12 05:42:56;;;;;;;29.75;11.12;;;;;;;14.23;94.65;100693.58;1721883;82;21902;-52
2021/09/12 05:45:22;;;;;;;24.35;10.72;;;;;;;14.33;94.06;100691.56;1749719;82;20885;-52
2021/09/12 05:47:49;;;;;;;33.63;11.95;;;;;;;14.43;93.44;100693.44;1749752;81;20937;-52
2021/09/12 05:50:17;;;;;;;30.40;10.45;;;;;;;14.54;92.74;100699.18;1749763;82;20956;-52
2021/09/12 05:52:45;;;;;;;27.10;11.57;;;;;;;14.66;92.40;100692.73;1749709;82;20940;-52
2021/09/12 05:55:12;;;;;;;23.87;10.60;;;;;;;14.77;92.10;100698.91;1749703;81;21257;-52
2021/09/12 05:57:38;;;;;;;33.08;11.03;;;;;;;14.89;91.91;100705.48;1749681;82;21489;-52
2021/09/12 06:00:06;;;;;;;27.35;11.97;;;;;;;14.99;91.14;100698.22;1749974;82;21433;-52
2021/09/12 06:02:33;;;;;;;28.05;11.53;;;;;;;15.08;90.41;100696.16;1749885;82;20976;-52
2021/09/12 06:05:03;;;;;;;33.85;10.88;;;;;;;15.20;89.88;100697.50;1749860;82;20963;-52
2021/09/12 06:07:28;;;;;;;22.90;11.05;;;;;;;15.31;89.36;100696.30;1749974;81;21034;-52
2021/09/12 06:09:55;;;;;;;24.72;10.63;;;;;;;15.41;88.67;100691.59;1749692;82;20983;-52
2021/09/12 06:12:21;;;;;;;33.33;11.12;;;;;;;15.51;88.10;100695.59;1722410;82;20979;-52
2021/09/12 06:14:48;;;;;;;31.45;10.98;;;;;;;15.60;87.24;100698.34;1721925;82;20988;-52
2021/09/12 06:17:14;;;;;;;24.87;10.65;;;;;;;15.69;86.40;100701.91;1749877;82;21050;-52
2021/09/12 06:19:43;;;;;;;22.52;10.68;;;;;;;15.80;85.76;100707.61;1749725;82;21040;-52
2021/09/12 06:22:09;;;;;;;18.55;9.53;;;;;;;15.91;84.96;100707.69;1749702;82;21529;-52
2021/09/12 06:24:35;;;;;;;24.05;9.48;;;;;;;16.00;84.36;100709.95;1750124;82;20973;-52
2021/09/12 06:27:04;;;;;;;39.35;10.63;;;;;;;16.11;83.51;100705.63;1749785;82;20967;-52
2021/09/12 06:29:31;;;;;;;29.40;9.93;;;;;;;16.26;82.92;100705.50;1749880;82;20979;-52
2021/09/12 06:31:59;;;;;;;25.97;9.43;;;;;;;16.38;81.75;100702.44;1749820;82;21495;-52
2021/09/12 06:34:26;;;;;;;31.42;9.50;;;;;;;16.51;80.62;100706.72;1749546;82;20968;-52
2021/09/12 06:36:52;;;;;;;21.27;10.43;;;;;;;16.64;80.60;100701.86;1749924;82;20987;-52
2021/09/12 06:39:21;;;;;;;26.75;10.45;;;;;;;16.76;80.05;100703.57;1749660;82;21018;-52
2021/09/12 06:41:48;;;;;;;30.30;10.93;;;;;;;16.93;79.43;100702.91;1749712;82;20955;-52
2021/09/12 06:44:15;;;;;;;34.48;9.68;;;;;;;17.06;78.67;100701.98;1749733;80;21093;-52
2021/09/12 06:46:41;;;;;;;41.08;10.03;;;;;;;17.20;77.85;100700.92;1749885;82;20940;-52
2021/09/12 06:49:09;;;;;;;27.20;9.75;;;;;;;17.34;77.67;100706.03;1749700;82;21038;-52
2021/09/12 06:51:36;;;;;;;23.60;9.70;;;;;;;17.48;77.16;100698.42;1749687;82;20908;-52
2021/09/12 06:54:02;;;;;;;30.32;9.93;;;;;;;17.62;76.09;100703.52;1749994;82;20936;-52
2021/09/12 06:56:29;;;;;;;23.77;9.53;;;;;;;17.76;75.14;100706.36;1749717;82;21131;-52
2021/09/12 06:58:55;;;;;;;24.20;9.25;;;;;;;17.93;74.94;100704.77;1749734;82;21042;-52
2021/09/12 07:01:21;;;;;;;31.25;9.48;;;;;;;18.07;73.44;100706.78;1722034;82;20865;-52
2021/09/12 07:03:48;;;;;;;29.02;8.60;;;;;;;18.24;72.50;100704.24;1749596;82;21047;-52
2021/09/12 07:06:14;;;;;;;24.00;8.13;;;;;;;18.41;70.36;100701.27;1749909;82;21020;-52
2021/09/12 07:08:41;;;;;;;28.23;8.80;;;;;;;18.59;68.88;100700.88;1749501;82;21481;-52
2021/09/12 07:11:13;;;;;;;36.70;9.60;;;;;;;18.79;69.79;100705.58;1749651;80;21450;-52
2021/09/12 07:13:38;;;;;;;26.62;8.55;;;;;;;18.99;69.78;100701.16;1749399;82;21011;-52
2021/09/12 07:18:08;;;;;;;40.33;8.33;;;;;;;19.33;69.33;100692.91;1816020;79;22513;-52
2021/09/12 07:20:34;;;;;;;41.20;8.90;;;;;;;19.46;69.33;100699.69;1758314;80;20962;-52
2021/09/12 07:23:02;;;;;;;56.13;10.30;;;;;;;19.62;69.77;100694.48;1789161;79;21122;-52
2021/09/12 07:25:29;;;;;;;39.38;8.68;;;;;;;19.78;69.70;100699.28;1789081;80;20900;-52
2021/09/12 07:27:56;;;;;;;38.58;9.30;;;;;;;19.92;67.33;100699.88;1789067;80;20932;-52
2021/09/12 07:30:22;;;;;;;53.20;10.13;;;;;;;20.04;65.52;100699.68;1769723;80;20932;-52
2021/09/12 07:32:51;;;;;;;39.03;9.28;;;;;;;20.21;67.10;100704.48;1760333;81;20976;-52
2021/09/12 07:35:18;;;;;;;42.75;9.60;;;;;;;20.36;67.92;100701.47;1760399;81;21166;-52
2021/09/12 07:37:44;;;;;;;40.80;9.28;;;;;;;20.49;65.35;100701.63;1760305;80;20951;-53
2021/09/12 07:40:12;;;;;;;31.77;7.80;;;;;;;20.62;65.18;100698.70;1760440;81;21525;-52
2021/09/12 07:42:41;;;;;;;44.63;10.25;;;;;;;20.80;65.23;100689.38;1730322;79;20884;-52
2021/09/12 07:45:09;;;;;;;31.02;9.55;;;;;;;20.97;64.66;100695.00;1760614;80;20884;-52
2021/09/12 07:47:35;;;;;;;41.88;8.70;;;;;;;21.15;64.37;100693.06;1760317;81;21110;-53
2021/09/12 07:50:04;;;;;;;41.10;9.28;;;;;;;21.35;64.56;100693.67;1759934;81;20931;-53
2021/09/12 07:52:30;;;;;;;38.88;8.70;;;;;;;21.51;63.71;100691.78;1760271;79;21023;-52
2021/09/12 07:54:57;;;;;;;40.23;8.85;;;;;;;21.70;63.91;100686.73;1760669;81;21506;-53
2021/09/12 07:57:23;;;;;;;34.50;8.98;;;;;;;21.92;63.71;100688.04;1760745;81;20932;-53
2021/09/12 07:59:49;;;;;;;43.58;8.38;;;;;;;22.14;62.45;100683.56;1760460;79;21307;-53
2021/09/12 08:02:16;;;;;;;30.32;6.90;;;;;;;22.39;61.59;100684.63;1760403;80;20872;-53
2021/09/12 08:04:42;;;;;;;22.65;6.62;;;;;;;22.64;57.81;100683.05;1730537;81;20897;-53
2021/09/12 08:07:09;;;;;;;21.95;6.22;;;;;;;22.87;53.81;100683.31;1760663;81;21010;-53
2021/09/12 08:09:37;;;;;;;24.32;6.35;;;;;;;23.10;51.19;100682.62;1760409;81;20868;-53
2021/09/12 08:12:06;;;;;;;20.55;6.53;;;;;;;23.34;50.87;100683.24;1760348;79;21155;-53
2021/09/12 08:14:33;;;;;;;18.55;5.72;;;;;;;23.58;51.48;100682.95;1760326;81;21418;-53
2021/09/12 08:17:00;;;;;;;18.23;6.70;;;;;;;23.83;50.71;100677.63;1755900;80;21003;-53
2021/09/12 08:19:28;;;;;;;22.85;6.65;;;;;;;24.05;50.32;100677.94;1749824;82;20971;-53
2021/09/12 08:21:54;;;;;;;29.12;6.35;;;;;;;24.27;48.91;100673.73;1722485;82;20924;-53
2021/09/12 08:24:21;;;;;;;31.45;6.15;;;;;;;24.50;46.37;100675.53;1749915;82;21252;-53
2021/09/12 08:26:49;;;;;;;22.10;6.12;;;;;;;24.70;45.84;100669.70;1750235;81;20933;-53
2021/09/12 08:29:16;;;;;;;16.70;6.17;;;;;;;24.88;45.33;100667.00;1749320;82;20995;-52
2021/09/12 08:31:43;;;;;;;34.45;9.58;;;;;;;25.02;46.12;100663.80;1721768;82;21481;-52
2021/09/12 08:34:10;;;;;;;11.73;6.70;;;;;;;25.26;44.24;100666.34;1749459;82;20975;-52
2021/09/12 08:36:36;;;;;;;11.33;6.10;;;;;;;25.52;42.55;100660.37;1749322;82;21217;-52
2021/09/12 08:39:03;;;;;;;15.18;6.50;;;;;;;25.79;42.51;100655.17;1749444;82;20924;-52
2021/09/12 08:41:31;;;;;;;16.17;7.00;;;;;;;26.06;41.32;100659.22;1749677;80;20905;-52
2021/09/12 08:43:59;;;;;;;30.25;13.38;;;;;;;26.34;40.86;100660.97;1721759;82;20936;-53
2021/09/12 08:46:26;;;;;;;23.38;9.75;;;;;;;26.62;40.36;100657.84;1749243;81;21505;-53
2021/09/12 08:48:53;;;;;;;29.37;10.65;;;;;;;26.89;39.44;100657.35;1721731;82;22293;-53
2021/09/12 08:51:20;;;;;;;30.77;9.25;;;;;;;27.14;39.10;100659.23;1749366;82;21585;-52
2021/09/12 08:53:47;;;;;;;28.25;9.20;;;;;;;27.42;39.20;100658.20;1749265;80;20901;-52
2021/09/12 08:56:13;;;;;;;19.77;7.50;;;;;;;27.64;35.81;100653.67;1749545;82;21497;-53
2021/09/12 08:58:40;;;;;;;31.00;6.65;;;;;;;27.84;38.29;100645.28;1749325;82;21480;-52
2021/09/12 09:01:07;;;;;;;16.70;6.92;;;;;;;28.08;38.46;100643.55;1721989;82;21926;-52
2021/09/12 09:03:39;;;;;;;19.37;6.28;;;;;;;28.25;38.27;100643.89;1749170;82;21437;-52
2021/09/12 09:06:17;;;;;;;39.03;7.85;;;;;;;28.43;38.65;100641.87;1749231;82;20940;-52
2021/09/12 09:08:59;;;;;;;46.30;8.23;;;;;;;28.53;38.73;100644.84;1724188;82;20944;-56
2021/09/12 09:11:33;;;;;;;30.27;6.87;;;;;;;28.56;40.38;100639.74;1749140;82;20845;-53
2021/09/12 09:14:16;;;;;;;25.32;5.97;;;;;;;28.56;39.75;100641.58;1748197;82;21107;-52
2021/09/12 09:16:49;;;;;;;21.05;5.17;;;;;;;28.63;39.53;100641.34;1749360;81;21031;-53
2021/09/12 09:19:16;;;;;;;17.82;4.65;;;;;;;28.79;37.26;100635.47;1721863;82;20924;-53
2021/09/12 09:21:46;;;;;;;14.68;4.70;;;;;;;29.07;34.87;100640.37;1749209;81;20877;-53
2021/09/12 09:24:29;;;;;;;20.00;5.08;;;;;;;29.31;37.30;100636.84;1749204;80;20936;-53
2021/09/12 09:27:03;;;;;;;17.30;5.25;;;;;;;29.45;35.49;100627.55;1749326;81;21117;-54
2021/09/12 09:29:36;;;;;;;17.07;5.05;;;;;;;29.62;32.94;100627.25;1721805;82;21542;-52
2021/09/12 09:32:13;;;;;;;22.20;7.00;;;;;;;29.95;31.14;100622.28;1749259;82;20983;-53
2021/09/12 09:34:41;;;;;;;24.63;7.08;;;;;;;30.19;35.75;100624.84;1749266;82;21419;-54
2021/09/12 09:37:17;;;;;;;17.87;6.50;;;;;;;30.32;35.86;100624.48;1749293;81;20991;-53
2021/09/12 09:39:55;;;;;;;23.35;6.12;;;;;;;30.31;37.52;100626.30;1748934;81;21873;-53
2021/09/12 09:42:38;;;;;;;19.67;5.85;;;;;;;30.34;34.24;100626.50;1749261;82;20889;-53
2021/09/12 09:45:17;;;;;;;15.38;4.80;;;;;;;30.27;33.80;100624.94;1749208;80;21406;-53
2021/09/12 09:47:45;;;;;;;12.65;4.58;;;;;;;30.23;32.15;100622.23;1749456;82;21011;-52
2021/09/12 09:50:24;;;;;;;7.83;4.12;;;;;;;30.37;32.20;100620.34;1749523;82;20932;-53
2021/09/12 09:52:53;;;;;;;12.10;4.40;;;;;;;30.72;31.26;100617.78;1749042;82;21038;-52
2021/09/12 09:55:23;;;;;;;88.40;7.72;;;;;;;31.02;28.99;100616.13;1749266;82;20979;-53
2021/09/12 09:57:55;;;;;;;14.47;5.33;;;;;;;31.29;29.23;100618.30;1749447;82;20962;-53
2021/09/12 10:00:24;;;;;;;25.68;6.75;;;;;;;31.50;30.37;100610.69;1749284;82;20897;-53
2021/09/12 10:02:51;;;;;;;12.73;5.03;;;;;;;31.67;30.50;100616.06;1749335;82;21018;-53
2021/09/12 10:05:17;;;;;;;18.67;5.78;;;;;;;31.53;29.68;100612.18;1741181;82;21271;-52
2021/09/12 10:07:45;;;;;;;19.02;5.83;;;;;;;31.33;30.14;100609.80;1741865;80;20936;-53
2021/09/12 10:10:14;;;;;;;21.20;6.37;;;;;;;31.15;29.29;100609.02;1699137;82;20940;-53
2021/09/12 10:12:59;;;;;;;10.90;4.78;;;;;;;31.01;29.67;100607.27;1725973;82;20956;-52
2021/09/12 10:15:37;;;;;;;12.57;4.73;;;;;;;30.77;30.58;100609.31;1710032;82;20893;-53
2021/09/12 10:18:05;;;;;;;23.50;4.87;;;;;;;30.71;30.72;100607.28;1732634;80;21405;-54
2021/09/12 10:20:34;;;;;;;28.52;5.75;;;;;;;30.56;29.55;100598.94;1727644;82;20877;-53
2021/09/12 10:23:07;;;;;;;13.85;4.80;;;;;;;30.27;29.73;100600.06;1706458;83;20984;-52
2021/09/12 10:25:50;;;;;;;13.80;4.58;;;;;;;30.03;29.75;100595.70;1713168;80;20980;-53
2021/09/12 10:28:31;;;;;;;11.48;4.45;;;;;;;30.00;30.10;100598.65;1745354;82;20995;-53
2021/09/12 10:30:59;;;;;;;8.63;4.62;;;;;;;29.72;29.74;100593.86;1735983;82;21148;-53
2021/09/12 10:33:27;;;;;;;57.33;7.22;;;;;;;29.47;30.45;100591.77;1718919;83;20884;-53
2021/09/12 10:36:03;;;;;;;37.85;6.62;;;;;;;29.33;30.48;100591.75;1719589;83;21026;-53
2021/09/12 10:38:40;;;;;;;48.42;5.80;;;;;;;29.44;33.16;100593.41;1719473;83;20968;-53
2021/09/12 10:41:13;;;;;;;22.98;5.40;;;;;;;29.63;28.75;100586.27;1719932;83;20944;-53
2021/09/12 10:43:42;;;;;;;23.30;4.78;;;;;;;29.82;29.01;100583.98;1718619;83;21180;-53
2021/09/12 10:46:14;;;;;;;26.45;5.42;;;;;;;29.97;29.94;100586.44;1719532;83;21459;-53
2021/09/12 10:48:45;;;;;;;33.28;5.45;;;;;;;30.06;28.29;100586.05;1719422;82;21418;-53
2021/09/12 10:51:22;;;;;;;36.03;5.62;;;;;;;30.00;28.06;100584.45;1692683;83;21061;-53
2021/09/12 10:54:01;;;;;;;34.48;5.30;;;;;;;29.94;29.75;100581.92;1719404;83;20900;-53
2021/09/12 10:56:30;;;;;;;16.77;4.30;;;;;;;30.02;28.80;100583.84;1692612;83;21055;-53
2021/09/12 10:59:00;;;;;;;14.03;4.08;;;;;;;30.12;29.46;100581.95;1719200;83;20933;-53
2021/09/12 11:01:40;;;;;;;11.20;4.85;;;;;;;30.15;28.91;100579.45;1719535;83;20971;-53
2021/09/12 11:04:10;;;;;;;55.90;5.50;;;;;;;30.27;27.86;100580.89;1719418;82;20932;-52
2021/09/12 11:06:42;;;;;;;31.68;5.00;;;;;;;30.39;27.81;100578.30;1719655;82;20992;-52
2021/09/12 11:09:22;;;;;;;22.37;5.40;;;;;;;30.49;28.87;100578.72;1719712;82;21192;-52
2021/09/12 11:11:56;;;;;;;41.42;5.40;;;;;;;30.56;27.64;100575.77;1692657;83;21066;-53
2021/09/12 11:14:23;;;;;;;14.35;4.47;;;;;;;30.68;27.94;100579.86;1719201;83;21497;-53
2021/09/12 11:16:51;;;;;;;6.50;4.15;;;;;;;30.78;27.72;100579.75;1722000;82;20979;-52